Time;durP1;ratioP1;P1;durP2;ratioP2;P2;SDS_P1;SDS_P2;PMS_P1;PMS_P2;Temp;Humidity;BMP_temperature;BMP_pressure;BME280_temperature;BME280_humidity;BME280_pressure;Samples;Min_cycle;Max_cycle;Signal;HPM_P1;HPM_P2
2021/08/13 00:01:09;;;;;;;10.02;6.07;;;;;;;18.66;86.05;99350.44;5055860;28;20057;-80
2021/08/13 00:03:37;;;;;;;9.85;5.82;;;;;;;18.64;86.03;99341.56;5053998;28;20451;-80
2021/08/13 00:06:04;;;;;;;13.38;7.43;;;;;;;18.45;87.12;99340.75;5053931;28;20045;-80
2021/08/13 00:08:31;;;;;;;9.55;6.22;;;;;;;18.49;86.46;99324.63;5054700;28;20091;-80
2021/08/13 00:10:59;;;;;;;11.05;6.43;;;;;;;18.48;86.25;99321.03;5053579;28;20056;-80
2021/08/13 00:13:46;;;;;;;8.95;6.28;;;;;;;18.38;86.36;99318.84;5046178;28;20041;-82
2021/08/13 00:16:13;;;;;;;11.93;6.15;;;;;;;18.46;86.98;99320.44;5047374;28;20049;-80
2021/08/13 00:18:39;;;;;;;9.00;6.03;;;;;;;18.44;86.87;99322.59;5054232;28;20550;-80
2021/08/13 00:21:06;;;;;;;9.82;5.90;;;;;;;18.31;87.02;99304.31;5046496;28;20044;-80
2021/08/13 00:23:33;;;;;;;7.80;5.18;;;;;;;18.31;86.94;99293.31;5054164;28;20056;-80
2021/08/13 00:26:03;;;;;;;8.38;5.47;;;;;;;18.64;85.86;99304.91;5054032;28;20075;-80
2021/08/13 00:28:30;;;;;;;9.45;5.45;;;;;;;18.38;86.36;99291.31;5050636;28;20424;-80
2021/08/13 00:30:57;;;;;;;11.73;5.63;;;;;;;18.36;86.45;99293.44;5052177;28;20041;-80
2021/08/13 00:33:23;;;;;;;12.50;5.53;;;;;;;18.57;85.75;99316.03;5051437;28;20057;-80
2021/08/13 00:35:53;;;;;;;9.05;5.80;;;;;;;18.59;85.58;99305.63;5053710;28;20098;-80
2021/08/13 00:38:19;;;;;;;11.30;5.97;;;;;;;18.35;86.35;99318.44;5049906;28;20049;-81
2021/08/13 00:40:48;;;;;;;8.80;6.30;;;;;;;18.26;86.51;99306.94;5054523;28;20095;-81
2021/08/13 00:43:19;;;;;;;11.25;6.18;;;;;;;18.20;87.49;99324.34;5040159;28;20222;-81
2021/08/13 00:45:46;;;;;;;7.50;5.38;;;;;;;18.34;86.60;99328.63;5052860;28;20056;-81
2021/08/13 00:48:13;;;;;;;9.55;6.13;;;;;;;18.26;86.86;99325.34;5054322;28;20049;-81
2021/08/13 00:50:40;;;;;;;10.40;5.93;;;;;;;18.06;87.74;99345.69;5044136;28;20049;-81
2021/08/13 00:53:09;;;;;;;8.57;6.28;;;;;;;18.00;88.25;99350.19;5033937;28;20095;-81
2021/08/13 00:55:36;;;;;;;9.18;5.90;;;;;;;17.99;88.70;99347.66;5036737;28;20339;-81
2021/08/13 00:58:03;;;;;;;13.10;6.00;;;;;;;18.10;88.02;99340.59;5034229;28;20052;-81
2021/08/13 01:00:33;;;;;;;9.50;6.63;;;;;;;18.18;87.51;99338.34;5035618;28;20048;-80
2021/08/13 01:03:04;;;;;;;8.60;5.80;;;;;;;18.24;87.63;99346.75;5034863;28;20468;-80
2021/08/13 01:05:30;;;;;;;12.00;5.68;;;;;;;18.13;88.00;99351.13;5034046;28;20049;-81
2021/08/13 01:07:57;;;;;;;8.93;5.55;;;;;;;18.04;88.43;99345.09;5052232;28;20103;-81
2021/08/13 01:10:24;;;;;;;8.52;5.95;;;;;;;17.91;88.97;99343.31;5048810;28;20505;-81
2021/08/13 01:12:57;;;;;;;14.05;6.13;;;;;;;18.00;88.57;99339.19;5052139;28;20064;-81
2021/08/13 01:15:27;;;;;;;9.23;6.65;;;;;;;17.80;89.33;99331.13;5053612;28;20068;-82
2021/08/13 01:17:59;;;;;;;10.70;6.15;;;;;;;17.76;89.43;99343.66;5053260;28;20485;-80
2021/08/13 01:20:53;;;;;;;9.80;6.70;;;;;;;17.97;88.72;99349.81;5036115;28;20045;-81
2021/08/13 01:23:26;;;;;;;10.95;6.68;;;;;;;18.06;88.14;99340.19;5028055;28;20049;-81
2021/08/13 01:25:58;;;;;;;8.52;5.97;;;;;;;17.89;88.45;99336.34;5053522;28;20483;-80
2021/08/13 01:28:35;;;;;;;8.95;6.35;;;;;;;17.77;89.08;99347.25;5044540;28;20045;-81
2021/08/13 01:31:10;;;;;;;8.43;5.40;;;;;;;17.92;88.29;99345.00;5047106;28;20056;-80
2021/08/13 01:33:40;;;;;;;12.73;6.95;;;;;;;18.18;87.98;99343.00;5043502;28;20049;-80
2021/08/13 01:36:09;;;;;;;8.73;6.30;;;;;;;18.29;87.58;99344.16;5044637;28;20057;-80
2021/08/13 01:38:38;;;;;;;11.80;6.75;;;;;;;18.28;87.45;99340.56;5034399;28;20052;-81
2021/08/13 01:41:08;;;;;;;9.55;6.70;;;;;;;18.24;87.68;99344.84;5053460;28;20057;-80
2021/08/13 01:43:36;;;;;;;10.38;6.90;;;;;;;18.14;88.21;99339.91;5052907;28;20052;-80
2021/08/13 01:46:05;;;;;;;11.40;7.13;;;;;;;18.24;87.97;99346.75;5043190;28;20056;-81
2021/08/13 01:48:33;;;;;;;10.98;6.75;;;;;;;18.12;88.01;99336.50;5053235;28;20049;-80
2021/08/13 01:51:01;;;;;;;10.00;6.28;;;;;;;18.01;88.46;99342.81;5043771;28;20057;-80
2021/08/13 01:53:31;;;;;;;13.93;6.97;;;;;;;18.10;89.05;99351.59;5051945;28;20488;-80
2021/08/13 01:55:59;;;;;;;12.15;6.60;;;;;;;17.96;88.47;99343.50;5038271;28;20045;-80
2021/08/13 01:58:31;;;;;;;11.00;6.43;;;;;;;17.88;89.20;99343.75;5050089;28;20049;-80
2021/08/13 02:01:05;;;;;;;8.80;6.80;;;;;;;17.92;89.48;99350.50;5052378;28;20053;-81
2021/08/13 02:03:34;;;;;;;10.20;6.88;;;;;;;18.03;89.11;99369.00;5052445;28;20049;-80
2021/08/13 02:06:02;;;;;;;12.18;6.50;;;;;;;17.96;88.57;99351.75;5052259;28;20373;-80
2021/08/13 02:08:30;;;;;;;10.05;6.55;;;;;;;18.12;88.55;99357.69;5043932;28;20053;-80
2021/08/13 02:10:58;;;;;;;11.13;6.38;;;;;;;17.92;87.97;99333.19;5034988;28;20057;-80
2021/08/13 02:13:25;;;;;;;9.10;5.88;;;;;;;17.88;88.31;99343.75;5045122;28;20485;-81
2021/08/13 02:16:00;;;;;;;10.38;6.18;;;;;;;17.66;89.30;99343.38;5052266;28;20049;-81
2021/08/13 02:18:30;;;;;;;8.13;6.05;;;;;;;17.51;90.38;99343.72;5043687;28;20052;-80
2021/08/13 02:21:02;;;;;;;10.90;6.13;;;;;;;17.60;90.01;99344.25;5050355;28;20503;-81
2021/08/13 02:23:30;;;;;;;12.23;7.13;;;;;;;17.68;89.39;99347.53;5051704;28;20056;-81
2021/08/13 02:26:00;;;;;;;10.68;6.40;;;;;;;17.61;89.74;99352.25;5052622;28;20053;-80
2021/08/13 02:28:30;;;;;;;8.60;6.72;;;;;;;17.78;89.02;99360.78;5051454;28;20049;-80
2021/08/13 02:30:57;;;;;;;11.30;6.45;;;;;;;17.52;90.20;99350.88;5043082;28;20572;-80
2021/08/13 02:33:24;;;;;;;7.70;5.80;;;;;;;17.55;89.95;99336.69;5050798;28;20052;-80
2021/08/13 02:35:54;;;;;;;8.98;6.30;;;;;;;17.80;89.44;99355.88;5042358;28;20049;-80
2021/08/13 02:38:24;;;;;;;9.73;6.35;;;;;;;17.72;89.81;99352.59;5052430;28;20044;-80
2021/08/13 02:40:56;;;;;;;10.60;6.93;;;;;;;17.58;90.32;99349.13;5040950;28;20060;-80
2021/08/13 02:43:28;;;;;;;9.45;6.25;;;;;;;17.57;90.93;99359.31;5049326;28;20056;-80
2021/08/13 02:46:04;;;;;;;9.55;6.30;;;;;;;17.78;89.92;99357.19;5036308;28;20504;-80
2021/08/13 02:48:34;;;;;;;12.13;7.30;;;;;;;17.86;89.63;99351.41;5045609;28;20060;-80
2021/08/13 02:51:04;;;;;;;16.83;6.45;;;;;;;17.68;90.22;99331.06;5049160;28;20049;-80
2021/08/13 02:53:36;;;;;;;9.60;6.50;;;;;;;17.61;90.86;99337.69;5037854;28;20485;-80
2021/08/13 02:56:07;;;;;;;9.90;6.18;;;;;;;17.64;90.78;99326.25;5052298;28;20056;-80
2021/08/13 02:58:46;;;;;;;11.57;7.40;;;;;;;17.86;89.67;99338.47;5033856;28;20053;-80
2021/08/13 03:01:14;;;;;;;13.48;6.32;;;;;;;17.75;90.52;99355.75;5052098;28;20060;-81
2021/08/13 03:03:42;;;;;;;9.52;6.03;;;;;;;17.88;89.68;99341.00;5032380;28;20456;-80
2021/08/13 03:06:12;;;;;;;8.70;6.35;;;;;;;17.98;88.95;99333.09;5052052;28;20102;-80
2021/08/13 03:08:40;;;;;;;10.55;6.85;;;;;;;17.90;89.50;99335.28;5033692;28;20107;-80
2021/08/13 03:11:10;;;;;;;11.35;6.40;;;;;;;17.85;89.27;99346.94;5046448;28;20099;-81
2021/08/13 03:13:39;;;;;;;9.80;6.68;;;;;;;17.92;89.64;99356.00;5034495;28;20045;-81
2021/08/13 03:16:07;;;;;;;9.68;6.70;;;;;;;17.93;89.73;99357.69;5044025;28;20052;-80
2021/08/13 03:18:34;;;;;;;11.50;7.18;;;;;;;17.90;89.45;99349.91;5052157;28;20049;-80
2021/08/13 03:21:02;;;;;;;11.30;6.97;;;;;;;17.94;89.15;99358.53;5048342;28;20063;-81
2021/08/13 03:23:28;;;;;;;14.50;7.18;;;;;;;17.94;90.44;99364.03;5055100;28;20045;-80
2021/08/13 03:25:56;;;;;;;12.80;7.38;;;;;;;17.95;93.96;99384.97;5052204;28;20053;-79
2021/08/13 03:28:24;;;;;;;14.10;7.00;;;;;;;17.81;94.11;99425.47;5055767;28;20049;-80
2021/08/13 03:30:51;;;;;;;11.20;7.38;;;;;;;17.90;92.90;99410.41;5039213;28;20108;-79
2021/08/13 03:33:18;;;;;;;13.40;7.50;;;;;;;17.79;93.16;99372.63;5055375;28;20400;-79
2021/08/13 03:35:45;;;;;;;11.68;7.07;;;;;;;17.63;93.85;99363.88;5046419;28;20053;-78
2021/08/13 03:38:12;;;;;;;15.65;8.23;;;;;;;17.50;94.93;99342.84;5053674;28;20088;-78
2021/08/13 03:40:39;;;;;;;15.88;7.40;;;;;;;17.40;96.84;99352.69;5051071;28;20049;-78
2021/08/13 03:43:06;;;;;;;14.55;8.25;;;;;;;17.12;100.00;99351.22;5053732;28;20052;-78
2021/08/13 03:45:34;;;;;;;13.43;8.10;;;;;;;17.18;100.00;99386.06;5053459;28;20566;-79
2021/08/13 03:48:01;;;;;;;15.65;8.35;;;;;;;17.31;100.00;99366.72;5037379;28;20053;-78
2021/08/13 03:50:28;;;;;;;15.95;8.65;;;;;;;17.11;100.00;99358.63;5055310;28;20053;-78
2021/08/13 03:52:55;;;;;;;17.52;8.98;;;;;;;17.42;100.00;99373.38;5055180;28;20049;-78
2021/08/13 03:55:21;;;;;;;13.73;7.95;;;;;;;17.33;100.00;99378.31;5054864;28;20507;-78
2021/08/13 03:57:48;;;;;;;18.23;8.88;;;;;;;17.23;100.00;99380.72;5045138;28;20477;-79
2021/08/13 04:00:16;;;;;;;12.15;7.82;;;;;;;17.31;100.00;99374.09;5044016;28;20049;-80
2021/08/13 04:02:44;;;;;;;13.10;8.80;;;;;;;17.40;100.00;99382.91;5048891;28;20052;-79
2021/08/13 04:05:13;;;;;;;12.35;7.57;;;;;;;17.48;100.00;99391.72;5040147;28;20049;-80
2021/08/13 04:07:39;;;;;;;12.40;8.07;;;;;;;17.58;100.00;99395.88;5050806;28;20439;-79
2021/08/13 04:10:10;;;;;;;15.02;8.45;;;;;;;17.72;99.84;99389.19;5034887;28;20781;-80
2021/08/13 04:12:37;;;;;;;14.95;8.50;;;;;;;17.71;100.00;99384.75;5053014;28;20053;-79
2021/08/13 04:15:06;;;;;;;13.75;8.32;;;;;;;17.68;100.00;99380.53;5044820;28;20102;-79
2021/08/13 04:17:33;;;;;;;13.85;8.25;;;;;;;17.69;100.00;99387.72;5054706;28;20053;-79
2021/08/13 04:20:01;;;;;;;13.80;8.18;;;;;;;17.58;100.00;99398.63;5041774;28;20103;-79
2021/08/13 04:22:28;;;;;;;17.13;9.27;;;;;;;17.72;100.00;99402.06;5035479;28;20049;-80
2021/08/13 04:24:55;;;;;;;11.30;7.68;;;;;;;17.72;100.00;99400.19;5042460;28;20041;-80
2021/08/13 04:27:21;;;;;;;13.80;7.55;;;;;;;17.73;100.00;99399.09;5054594;28;20045;-79
2021/08/13 04:29:51;;;;;;;17.45;8.45;;;;;;;17.65;100.00;99391.16;5047543;28;20060;-79
2021/08/13 04:32:18;;;;;;;14.50;8.27;;;;;;;17.84;100.00;99403.88;5034651;28;20049;-79
2021/08/13 04:34:45;;;;;;;16.27;7.72;;;;;;;17.72;100.00;99388.34;5045432;28;20045;-79
2021/08/13 04:37:13;;;;;;;18.00;8.73;;;;;;;17.87;100.00;99405.34;5034560;28;20049;-79
2021/08/13 04:39:39;;;;;;;15.30;8.38;;;;;;;17.94;100.00;99394.28;5048828;28;20122;-79
2021/08/13 04:42:06;;;;;;;15.75;8.15;;;;;;;17.81;100.00;99400.72;5053819;28;20060;-79
2021/08/13 04:44:33;;;;;;;12.23;8.48;;;;;;;17.90;100.00;99409.56;5054197;28;20459;-79
2021/08/13 04:47:00;;;;;;;13.50;8.35;;;;;;;17.88;100.00;99409.75;5052709;28;20476;-79
2021/08/13 04:49:27;;;;;;;15.45;8.73;;;;;;;17.87;100.00;99410.84;5054396;28;20059;-79
2021/08/13 04:51:54;;;;;;;14.55;8.45;;;;;;;17.96;98.93;99417.75;5052737;28;20126;-79
2021/08/13 04:54:22;;;;;;;11.30;8.18;;;;;;;17.84;99.05;99414.03;5034215;28;20049;-79
2021/08/13 04:56:49;;;;;;;12.88;7.95;;;;;;;17.78;100.00;99426.78;5054315;28;20079;-79
2021/08/13 04:59:15;;;;;;;14.80;8.40;;;;;;;17.79;98.69;99431.19;5039834;28;20092;-79
2021/08/13 05:01:42;;;;;;;15.13;8.75;;;;;;;17.92;99.89;99443.19;5048939;28;20099;-79
2021/08/13 05:04:09;;;;;;;15.75;9.07;;;;;;;17.95;99.04;99451.00;5040140;28;20050;-79
2021/08/13 05:06:36;;;;;;;15.18;10.05;;;;;;;17.87;99.04;99441.91;5046710;28;20053;-79
2021/08/13 05:09:02;;;;;;;15.77;9.10;;;;;;;17.90;100.00;99457.16;5053197;28;20488;-79
2021/08/13 05:11:31;;;;;;;17.17;9.52;;;;;;;17.95;98.75;99442.75;5053709;28;20481;-78
2021/08/13 05:13:57;;;;;;;13.50;9.27;;;;;;;17.83;100.00;99432.44;5053281;28;20053;-79
2021/08/13 05:16:24;;;;;;;16.08;9.25;;;;;;;17.99;99.60;99432.94;5037635;28;20049;-79
2021/08/13 05:18:51;;;;;;;13.23;8.77;;;;;;;18.01;99.31;99420.66;5047381;28;20281;-79
2021/08/13 05:21:17;;;;;;;12.73;9.13;;;;;;;17.90;100.00;99435.16;5050059;28;20497;-78
2021/08/13 05:23:44;;;;;;;16.30;8.82;;;;;;;17.99;100.00;99442.06;5053076;28;20106;-80
2021/08/13 05:26:11;;;;;;;16.42;9.63;;;;;;;18.07;99.87;99443.66;5053053;28;20102;-79
2021/08/13 05:28:39;;;;;;;17.58;9.45;;;;;;;17.99;99.81;99443.94;5053084;28;20111;-79
2021/08/13 05:31:06;;;;;;;17.60;8.88;;;;;;;17.91;100.00;99425.00;5052964;28;20484;-78
2021/08/13 05:33:32;;;;;;;14.73;9.68;;;;;;;17.84;99.30;99427.78;5052862;28;20450;-79
2021/08/13 05:35:59;;;;;;;17.63;10.20;;;;;;;17.87;99.27;99419.09;5052556;28;20049;-79
2021/08/13 05:38:26;;;;;;;13.93;8.63;;;;;;;18.00;98.82;99443.72;5052902;28;20122;-79
2021/08/13 05:40:53;;;;;;;12.10;8.63;;;;;;;17.91;100.00;99447.00;5052339;28;20071;-79
2021/08/13 05:43:19;;;;;;;15.20;9.20;;;;;;;17.95;100.00;99445.50;5034248;28;20416;-79
2021/08/13 05:45:48;;;;;;;18.35;8.90;;;;;;;17.92;100.00;99435.78;5046505;28;20053;-79
2021/08/13 05:48:14;;;;;;;14.40;8.95;;;;;;;18.03;99.59;99437.75;5038299;28;20045;-79
2021/08/13 05:50:41;;;;;;;14.90;9.55;;;;;;;18.08;98.76;99437.09;5039763;28;20130;-78
2021/08/13 05:53:08;;;;;;;16.58;9.05;;;;;;;18.00;100.00;99432.72;5050361;28;20123;-79
2021/08/13 05:55:34;;;;;;;11.73;8.57;;;;;;;18.10;100.00;99434.13;5053048;28;20045;-78
2021/08/13 05:58:01;;;;;;;12.98;8.90;;;;;;;18.11;99.77;99433.03;5052084;28;20048;-78
2021/08/13 06:00:28;;;;;;;14.95;8.55;;;;;;;18.27;98.59;99428.84;5046311;28;20103;-78
2021/08/13 06:02:58;;;;;;;13.40;10.13;;;;;;;18.30;98.87;99439.41;5052836;28;20451;-78
2021/08/13 06:05:25;;;;;;;12.13;9.18;;;;;;;18.33;99.78;99442.53;5052164;28;20053;-79
2021/08/13 06:07:52;;;;;;;13.73;8.60;;;;;;;18.54;98.40;99440.38;5049685;28;20045;-79
2021/08/13 06:10:19;;;;;;;13.50;9.07;;;;;;;18.92;95.95;99444.81;5051876;28;20489;-78
2021/08/13 06:12:46;;;;;;;12.80;9.20;;;;;;;19.23;94.43;99445.66;5047853;28;20046;-79
2021/08/13 06:15:13;;;;;;;13.93;8.88;;;;;;;19.75;91.45;99440.38;5033353;28;20053;-79
2021/08/13 06:17:41;;;;;;;12.65;8.73;;;;;;;20.34;87.56;99442.31;5032824;28;20049;-78
2021/08/13 06:20:12;;;;;;;15.25;8.77;;;;;;;20.58;86.14;99440.31;5034510;28;20133;-78
2021/08/13 06:22:39;;;;;;;15.45;8.73;;;;;;;20.82;85.91;99445.78;5036827;28;20497;-79
2021/08/13 06:25:06;;;;;;;18.40;8.90;;;;;;;21.07;85.04;99433.59;5032598;28;20069;-79
2021/08/13 06:27:33;;;;;;;11.25;7.90;;;;;;;21.38;84.83;99440.53;5044857;28;20090;-79
2021/08/13 06:30:00;;;;;;;14.52;7.75;;;;;;;21.49;84.66;99436.00;5051269;28;20497;-79
2021/08/13 06:32:27;;;;;;;11.63;7.97;;;;;;;21.79;83.97;99443.16;5052454;28;20068;-79
2021/08/13 06:34:53;;;;;;;11.60;8.10;;;;;;;22.03;82.92;99441.88;5051240;28;20219;-79
2021/08/13 06:37:21;;;;;;;10.77;8.07;;;;;;;22.02;83.00;99440.19;5052544;28;20049;-79
2021/08/13 06:39:48;;;;;;;10.52;7.25;;;;;;;22.31;81.84;99442.88;5051295;28;20446;-79
2021/08/13 06:42:15;;;;;;;10.82;8.02;;;;;;;22.44;81.73;99455.50;5053246;28;20483;-79
2021/08/13 06:44:42;;;;;;;14.73;8.38;;;;;;;22.47;81.13;99448.63;5052979;28;20061;-79
2021/08/13 06:47:09;;;;;;;10.35;8.13;;;;;;;22.87;80.29;99453.00;5032894;28;20053;-79
2021/08/13 06:49:36;;;;;;;12.18;8.32;;;;;;;23.22;79.15;99455.38;5032219;28;20076;-79
2021/08/13 06:52:03;;;;;;;17.38;9.45;;;;;;;23.32;76.63;99465.75;5048693;28;20106;-80
2021/08/13 06:54:31;;;;;;;12.13;7.60;;;;;;;23.76;75.64;99464.75;5051904;28;20053;-79
2021/08/13 06:56:58;;;;;;;11.88;8.15;;;;;;;23.80;73.10;99466.75;5042125;28;20049;-79
2021/08/13 06:59:25;;;;;;;11.00;8.05;;;;;;;23.52;73.48;99470.66;5031980;28;20136;-79
2021/08/13 07:01:52;;;;;;;11.23;7.53;;;;;;;23.32;77.16;99474.06;5046125;28;20111;-79
2021/08/13 07:04:19;;;;;;;14.45;7.45;;;;;;;23.11;78.19;99482.16;5051886;28;20441;-79
2021/08/13 07:06:46;;;;;;;15.05;7.93;;;;;;;23.07;78.95;99482.91;5051744;28;20049;-80
2021/08/13 07:09:12;;;;;;;11.05;7.75;;;;;;;22.86;80.23;99490.13;5051579;28;20049;-80
2021/08/13 07:11:41;;;;;;;12.63;8.10;;;;;;;22.86;79.18;99484.59;5052189;28;20048;-79
2021/08/13 07:14:07;;;;;;;11.82;7.70;;;;;;;22.80;80.75;99498.38;5050975;28;20558;-79
2021/08/13 07:16:34;;;;;;;10.10;7.45;;;;;;;22.50;80.86;99495.19;5052435;28;20045;-79
2021/08/13 07:19:04;;;;;;;13.10;7.63;;;;;;;22.31;81.72;99491.84;5042477;28;20041;-79
2021/08/13 07:21:30;;;;;;;;;;;;;;;22.27;83.28;99500.66;5032361;28;20099;-80
2021/08/13 07:23:57;;;;;;;13.32;8.57;;;;;;;22.53;82.28;99495.53;5046015;28;19973;-79
2021/08/13 07:26:24;;;;;;;10.75;8.23;;;;;;;22.78;81.83;99494.19;5051198;28;20562;-79
2021/08/13 07:28:52;;;;;;;13.13;7.80;;;;;;;22.49;80.75;99496.28;5051692;28;20095;-79
2021/08/13 07:31:18;;;;;;;10.30;7.63;;;;;;;22.65;81.96;99494.56;5051123;28;20073;-80
2021/08/13 07:33:45;;;;;;;16.77;7.97;;;;;;;22.68;81.90;99480.22;5051169;28;20049;-80
2021/08/13 07:36:12;;;;;;;11.95;7.30;;;;;;;23.15;80.87;99476.91;5040704;28;20061;-80
2021/08/13 07:38:40;;;;;;;13.65;8.00;;;;;;;23.60;78.76;99481.25;5051517;28;20053;-80
2021/08/13 07:41:07;;;;;;;20.27;8.15;;;;;;;23.66;80.06;99477.41;5051099;28;20493;-79
2021/08/13 07:43:35;;;;;;;12.25;8.60;;;;;;;24.18;77.08;99492.59;5051248;28;20539;-80
2021/08/13 07:46:03;;;;;;;10.60;7.53;;;;;;;24.18;78.65;99487.03;5050937;28;20049;-81
2021/08/13 07:48:30;;;;;;;12.77;7.57;;;;;;;23.92;75.51;99487.94;5033481;28;20055;-80
2021/08/13 07:50:57;;;;;;;12.35;8.18;;;;;;;23.67;80.18;99478.28;5038504;28;20103;-80
2021/08/13 07:53:24;;;;;;;11.00;7.30;;;;;;;23.56;78.19;99477.34;5041570;28;20519;-80
2021/08/13 07:55:51;;;;;;;15.15;8.25;;;;;;;23.54;76.73;99484.25;5051306;28;20424;-80
2021/08/13 07:58:17;;;;;;;10.40;8.02;;;;;;;23.74;78.79;99483.59;5042219;28;20050;-80
2021/08/13 08:00:44;;;;;;;17.25;8.13;;;;;;;23.77;79.72;99486.69;5032932;28;20053;-80
2021/08/13 08:03:13;;;;;;;13.98;8.05;;;;;;;23.82;75.85;99494.22;5050736;28;20095;-80
2021/08/13 08:05:40;;;;;;;15.77;7.40;;;;;;;23.78;76.93;99501.41;5054566;28;20556;-80
2021/08/13 08:08:07;;;;;;;11.32;8.23;;;;;;;23.64;79.71;99495.47;5053741;28;20444;-80
2021/08/13 08:10:34;;;;;;;16.52;8.18;;;;;;;23.77;79.25;99508.03;5047942;28;20045;-80
2021/08/13 08:13:01;;;;;;;17.35;7.88;;;;;;;23.82;77.68;99492.28;5054232;28;20324;-80
2021/08/13 08:15:28;;;;;;;17.80;8.27;;;;;;;24.45;77.47;99511.13;5042026;28;20543;-80
2021/08/13 08:17:54;;;;;;;21.70;8.15;;;;;;;24.68;76.26;99511.84;5045779;28;20045;-81
2021/08/13 08:20:23;;;;;;;19.00;8.73;;;;;;;24.62;76.11;99510.13;5051304;28;20374;-80
2021/08/13 08:22:50;;;;;;;25.88;7.75;;;;;;;24.66;75.73;99523.22;5042953;28;20041;-81
2021/08/13 08:25:16;;;;;;;23.27;8.18;;;;;;;24.91;72.88;99519.72;5054595;28;20115;-80
2021/08/13 08:27:43;;;;;;;15.73;8.18;;;;;;;25.19;72.87;99517.59;5043524;28;20459;-81
2021/08/13 08:30:14;;;;;;;22.13;8.18;;;;;;;25.29;70.42;99533.47;5054639;28;20599;-81
2021/08/13 08:32:40;;;;;;;15.30;7.60;;;;;;;25.28;69.84;99526.28;5053920;28;20045;-80
2021/08/13 08:35:08;;;;;;;17.63;8.07;;;;;;;25.43;68.37;99520.78;5054230;28;20057;-81
2021/08/13 08:37:50;;;;;;;15.30;7.93;;;;;;;25.67;70.17;99527.75;5043706;28;20045;-79
2021/08/13 08:40:21;;;;;;;12.68;7.63;;;;;;;25.59;68.19;99520.78;5054344;28;20052;-80
2021/08/13 08:42:49;;;;;;;10.77;7.70;;;;;;;25.74;66.60;99531.97;5053886;28;20044;-81
2021/08/13 08:45:15;;;;;;;14.95;7.38;;;;;;;25.78;65.43;99523.88;5044369;28;20046;-81
2021/08/13 08:47:43;;;;;;;16.98;7.93;;;;;;;25.88;67.07;99518.34;5034736;28;20555;-81
2021/08/13 08:50:11;;;;;;;11.63;7.03;;;;;;;25.95;66.38;99523.63;5054247;28;20068;-81
2021/08/13 08:52:42;;;;;;;12.68;7.63;;;;;;;25.78;65.68;99521.09;5054395;28;20044;-81
2021/08/13 08:55:09;;;;;;;16.17;8.32;;;;;;;25.67;65.26;99531.41;5053233;28;20053;-81
2021/08/13 08:57:39;;;;;;;8.88;7.32;;;;;;;25.75;64.84;99522.50;5054192;28;20095;-81
2021/08/13 09:00:07;;;;;;;11.95;7.80;;;;;;;25.90;64.79;99518.06;5053731;28;20109;-81
2021/08/13 09:02:34;;;;;;;9.98;7.38;;;;;;;25.94;64.39;99528.34;5050176;28;20049;-81
2021/08/13 09:05:01;;;;;;;11.23;6.97;;;;;;;25.93;62.45;99531.41;5035512;28;20172;-81
2021/08/13 09:07:28;;;;;;;15.40;7.03;;;;;;;25.91;64.50;99530.84;5054064;28;20053;-79
2021/08/13 09:09:56;;;;;;;12.05;6.88;;;;;;;25.87;62.28;99532.53;5053830;28;20048;-81
2021/08/13 09:12:23;;;;;;;14.70;7.45;;;;;;;25.94;63.90;99527.50;5045465;28;20053;-81
2021/08/13 09:14:50;;;;;;;10.05;7.20;;;;;;;26.07;64.46;99520.59;5053891;28;20048;-81
2021/08/13 09:17:17;;;;;;;12.98;7.35;;;;;;;26.25;63.08;99536.72;5041425;28;20045;-82
2021/08/13 09:19:46;;;;;;;12.40;6.85;;;;;;;26.11;60.66;99524.50;5038338;28;20057;-82
2021/08/13 09:22:14;;;;;;;10.63;6.93;;;;;;;26.45;61.13;99529.47;5034577;28;20103;-82
2021/08/13 09:24:42;;;;;;;11.18;6.40;;;;;;;26.45;60.21;99513.59;5050416;28;20053;-81
2021/08/13 09:27:22;;;;;;;12.80;6.95;;;;;;;26.40;58.41;99521.94;5053790;28;20303;-82
2021/08/13 09:30:09;;;;;;;9.52;6.65;;;;;;;26.58;59.07;99523.31;5053480;28;20049;-82
2021/08/13 09:32:37;;;;;;;13.80;6.70;;;;;;;26.68;59.50;99505.75;5052966;28;20052;-82
2021/08/13 09:35:05;;;;;;;16.92;8.77;;;;;;;26.72;62.88;99522.75;5047653;28;20061;-82
2021/08/13 09:37:32;;;;;;;12.43;6.82;;;;;;;26.59;63.13;99526.94;5033716;28;20057;-82
2021/08/13 09:39:59;;;;;;;14.00;6.50;;;;;;;26.59;59.89;99526.94;5034518;28;20061;-82
2021/08/13 09:42:39;;;;;;;11.88;5.90;;;;;;;26.59;59.63;99538.09;5051966;28;20049;-82
2021/08/13 09:45:07;;;;;;;11.35;6.53;;;;;;;26.63;60.75;99517.72;5032863;28;20068;-82
2021/08/13 09:47:42;;;;;;;12.27;7.00;;;;;;;26.94;60.01;99527.97;5048858;28;20056;-82
2021/08/13 09:50:10;;;;;;;14.50;7.57;;;;;;;27.18;60.11;99533.72;5033704;28;20100;-80
2021/08/13 09:52:37;;;;;;;8.82;5.90;;;;;;;27.17;58.71;99530.13;5038560;28;20408;-80
2021/08/13 09:55:13;;;;;;;9.32;6.20;;;;;;;27.05;58.59;99528.75;5052670;28;20052;-80
2021/08/13 09:57:43;;;;;;;10.63;6.18;;;;;;;26.87;59.78;99533.84;5046794;28;20124;-82
2021/08/13 10:00:11;;;;;;;10.60;6.68;;;;;;;27.05;59.70;99512.84;5033039;28;20060;-82
2021/08/13 10:02:39;;;;;;;13.02;6.10;;;;;;;27.31;60.13;99527.53;5034776;28;20053;-82
2021/08/13 10:05:18;;;;;;;8.93;6.32;;;;;;;27.37;57.61;99514.41;5052400;28;20045;-82
2021/08/13 10:07:49;;;;;;;10.63;6.22;;;;;;;27.35;55.69;99523.06;5052412;28;20546;-82
2021/08/13 10:10:16;;;;;;;10.95;6.25;;;;;;;27.02;58.43;99530.16;5044902;28;20057;-80
2021/08/13 10:12:46;;;;;;;11.02;6.13;;;;;;;27.05;57.19;99524.00;5052544;28;20558;-82
2021/08/13 10:15:28;;;;;;;11.57;6.50;;;;;;;27.31;57.22;99535.06;5051663;28;20045;-82
2021/08/13 10:17:57;;;;;;;9.45;6.03;;;;;;;27.34;59.00;99523.34;5052643;28;20115;-82
2021/08/13 10:20:32;;;;;;;11.17;6.30;;;;;;;27.61;57.67;99528.50;5051813;28;20548;-82
2021/08/13 10:23:01;;;;;;;8.15;6.28;;;;;;;27.98;56.99;99532.72;5052627;28;20052;-82
2021/08/13 10:25:28;;;;;;;8.65;5.90;;;;;;;27.95;56.03;99524.91;5051531;28;20567;-82
2021/08/13 10:27:57;;;;;;;12.52;6.45;;;;;;;28.05;55.80;99519.25;5034889;28;20056;-83
2021/08/13 10:30:25;;;;;;;11.53;5.63;;;;;;;27.96;54.15;99508.97;5032809;28;20046;-83
2021/08/13 10:32:56;;;;;;;11.63;6.20;;;;;;;28.02;54.63;99511.47;5047620;28;20056;-82
2021/08/13 10:35:26;;;;;;;9.90;5.70;;;;;;;28.11;54.62;99528.44;5051571;28;20504;-81
2021/08/13 10:37:53;;;;;;;9.65;5.30;;;;;;;28.19;54.13;99530.59;5040084;28;20489;-81
2021/08/13 10:40:20;;;;;;;10.18;6.32;;;;;;;28.14;53.41;99530.66;5052032;28;20049;-82
2021/08/13 10:42:50;;;;;;;11.88;6.05;;;;;;;28.12;56.01;99521.69;5035629;28;20053;-81
2021/08/13 10:45:23;;;;;;;10.10;5.93;;;;;;;28.32;54.95;99536.63;5036762;28;20098;-81
2021/08/13 10:47:55;;;;;;;15.45;9.00;;;;;;;28.72;54.00;99538.19;5043398;28;20058;-81
2021/08/13 10:50:22;;;;;;;13.77;6.32;;;;;;;28.75;53.21;99518.03;5035349;28;20052;-81
2021/08/13 10:52:49;;;;;;;11.63;5.80;;;;;;;28.73;53.18;99508.28;5051656;28;20432;-81
2021/08/13 10:55:42;;;;;;;8.27;5.40;;;;;;;28.96;52.68;99515.81;5051831;28;20094;-81
2021/08/13 10:58:10;;;;;;;13.63;5.50;;;;;;;28.94;52.76;99520.06;5043069;28;20057;-81
2021/08/13 11:01:09;;;;;;;10.93;5.13;;;;;;;29.06;53.15;99514.03;5032118;28;20045;-81
2021/08/13 11:03:37;;;;;;;13.50;4.87;;;;;;;29.02;50.64;99512.97;5001871;28;20057;-81
2021/08/13 11:06:05;;;;;;;8.38;5.28;;;;;;;29.08;51.22;99514.56;5022909;28;20049;-82
2021/08/13 11:09:07;;;;;;;7.32;5.30;;;;;;;28.88;53.04;99505.28;5041084;28;20099;-81
2021/08/13 11:12:05;;;;;;;7.18;5.40;;;;;;;29.03;51.77;99506.25;5032442;28;20080;-81
2021/08/13 11:14:33;;;;;;;13.98;5.10;;;;;;;29.33;50.49;99507.81;5039026;28;20099;-81
2021/08/13 11:17:03;;;;;;;9.70;4.78;;;;;;;29.44;49.79;99502.91;5047027;28;20049;-81
2021/08/13 11:19:57;;;;;;;9.68;5.82;;;;;;;29.19;49.49;99507.72;5050119;28;20085;-81
2021/08/13 11:22:28;;;;;;;8.65;4.88;;;;;;;29.26;50.35;99496.16;5031822;28;20045;-81
2021/08/13 11:24:55;;;;;;;6.63;4.40;;;;;;;29.52;50.24;99505.00;5037735;28;20056;-81
2021/08/13 11:27:22;;;;;;;7.10;5.15;;;;;;;29.56;50.01;99500.47;5051544;28;20049;-82
2021/08/13 11:29:48;;;;;;;7.75;4.63;;;;;;;29.56;49.24;99505.25;5051707;28;20045;-81
2021/08/13 11:32:31;;;;;;;6.15;4.43;;;;;;;29.57;49.91;99502.16;5038042;28;20100;-81
2021/08/13 11:35:01;;;;;;;6.57;4.90;;;;;;;29.81;50.28;99509.66;5030966;28;20049;-81